Time;durP1;ratioP1;P1;durP2;ratioP2;P2;SDS_P1;SDS_P2;PMS_P1;PMS_P2;Temp;Humidity;BMP_temperature;BMP_pressure;BME280_temperature;BME280_humidity;BME280_pressure;Samples;Min_cycle;Max_cycle;Signal;HPM_P1;HPM_P2
2021/09/18 00:00:23;;;;;;;2.65;1.10;;;;;;;14.72;98.44;96981.03;1753356;82;21064;-80
2021/09/18 00:02:51;;;;;;;2.17;1.50;;;;;;;14.72;98.38;96979.70;1753174;81;21502;-78
2021/09/18 00:05:18;;;;;;;1.47;1.37;;;;;;;14.69;98.25;96971.42;1758750;81;20992;-80
2021/09/18 00:07:44;;;;;;;1.60;1.50;;;;;;;14.70;98.25;96965.63;1779416;80;21417;-79
2021/09/18 00:10:11;;;;;;;1.77;1.55;;;;;;;14.69;98.21;96968.75;1779448;80;21068;-78
2021/09/18 00:12:38;;;;;;;1.60;1.50;;;;;;;14.67;98.90;96971.14;1772759;80;20982;-78
2021/09/18 00:15:05;;;;;;;1.70;1.60;;;;;;;14.62;98.28;96972.28;1776325;80;21060;-78
2021/09/18 00:17:32;;;;;;;2.77;1.60;;;;;;;14.52;98.06;96974.67;1784396;80;21012;-79
2021/09/18 00:20:01;;;;;;;2.20;1.75;;;;;;;14.51;97.65;96985.43;1784134;80;21012;-79
2021/09/18 00:22:27;;;;;;;2.98;1.80;;;;;;;14.49;97.41;96982.02;1784394;80;21055;-80
2021/09/18 00:24:54;;;;;;;2.40;1.57;;;;;;;14.50;97.77;96999.72;1779422;80;20997;-80
2021/09/18 00:27:20;;;;;;;1.87;1.67;;;;;;;14.49;97.93;96988.68;1753368;80;20939;-79
2021/09/18 00:29:46;;;;;;;2.15;1.62;;;;;;;14.50;97.55;96982.39;1748500;82;21472;-79
2021/09/18 00:32:13;;;;;;;2.62;1.60;;;;;;;14.50;97.54;96990.39;1748641;82;20971;-79
2021/09/18 00:34:39;;;;;;;1.80;1.52;;;;;;;14.50;97.20;96993.05;1750901;80;21018;-79
2021/09/18 00:37:06;;;;;;;2.22;1.60;;;;;;;14.51;97.23;96997.43;1751411;82;21448;-79
2021/09/18 00:39:32;;;;;;;1.60;1.50;;;;;;;14.51;97.71;96994.77;1749459;81;21473;-79
2021/09/18 00:41:59;;;;;;;1.67;1.50;;;;;;;14.51;97.21;96988.97;1739081;81;20995;-79
2021/09/18 00:44:27;;;;;;;1.82;1.40;;;;;;;14.55;97.19;96989.63;1734102;82;20969;-79
2021/09/18 00:46:54;;;;;;;1.80;1.55;;;;;;;14.55;97.32;96987.42;1744742;82;21774;-79
2021/09/18 00:49:21;;;;;;;1.75;1.50;;;;;;;14.57;97.21;96993.53;1745693;81;21024;-79
2021/09/18 00:51:49;;;;;;;1.77;1.40;;;;;;;14.60;97.06;96989.33;1765024;81;20980;-79
2021/09/18 00:54:16;;;;;;;1.70;1.60;;;;;;;14.59;96.75;96993.82;1764764;81;21059;-79
2021/09/18 00:56:43;;;;;;;2.72;1.55;;;;;;;14.61;96.86;96989.23;1753511;80;20998;-80
2021/09/18 00:59:11;;;;;;;5.00;1.72;;;;;;;14.63;96.89;96990.02;1744493;81;21053;-79
2021/09/18 01:01:37;;;;;;;2.15;1.60;;;;;;;14.66;97.15;96984.97;1713592;84;21070;-79
2021/09/18 01:04:04;;;;;;;1.70;1.42;;;;;;;14.70;97.13;96992.30;1728117;82;21012;-79
2021/09/18 01:06:31;;;;;;;1.57;1.30;;;;;;;14.72;97.09;96983.24;1744911;82;21481;-79
2021/09/18 01:08:59;;;;;;;1.70;1.60;;;;;;;14.74;97.04;96989.32;1744701;82;20957;-79
2021/09/18 01:11:27;;;;;;;1.72;1.62;;;;;;;14.76;97.15;96980.80;1763659;81;21056;-79
2021/09/18 01:13:53;;;;;;;1.37;1.27;;;;;;;14.73;96.30;96986.28;1765198;80;20977;-79
2021/09/18 01:16:22;;;;;;;1.70;1.20;;;;;;;14.74;96.67;96983.15;1765139;81;21007;-79
2021/09/18 01:18:49;;;;;;;2.50;1.30;;;;;;;14.71;95.87;96986.00;1754245;81;20977;-79
2021/09/18 01:21:17;;;;;;;3.42;1.20;;;;;;;14.70;96.07;96980.29;1759754;81;21035;-79
2021/09/18 01:23:45;;;;;;;1.20;1.10;;;;;;;14.73;96.31;96981.41;1764686;81;21084;-79
2021/09/18 01:26:12;;;;;;;1.87;1.37;;;;;;;14.75;96.05;96986.19;1752261;80;21018;-79
2021/09/18 01:28:40;;;;;;;1.20;1.10;;;;;;;14.77;95.94;96980.30;1754156;81;20988;-79
2021/09/18 01:31:09;;;;;;;3.17;1.10;;;;;;;14.82;96.36;96981.36;1765130;81;21024;-79
2021/09/18 01:33:36;;;;;;;1.32;1.00;;;;;;;14.77;95.23;96987.84;1765112;81;21441;-79
2021/09/18 01:36:03;;;;;;;4.47;0.90;;;;;;;14.71;94.73;96990.87;1765088;81;21043;-79
2021/09/18 01:38:30;;;;;;;2.67;1.22;;;;;;;14.69;94.41;96983.92;1756582;81;21053;-79
2021/09/18 01:40:57;;;;;;;1.95;0.93;;;;;;;14.71;95.08;96991.33;1747389;82;21073;-79
2021/09/18 01:43:24;;;;;;;2.92;1.10;;;;;;;14.70;95.11;96989.63;1747649;82;21045;-79
2021/09/18 01:45:50;;;;;;;1.80;1.00;;;;;;;14.66;94.56;96984.97;1747872;82;21014;-79
2021/09/18 01:48:17;;;;;;;1.35;1.07;;;;;;;14.65;94.83;96976.56;1752509;81;21008;-78
2021/09/18 01:50:48;;;;;;;2.25;1.10;;;;;;;14.64;94.93;96983.72;1750772;82;20976;-79
2021/09/18 01:53:18;;;;;;;1.30;1.20;;;;;;;14.60;94.64;96979.53;1757096;82;21009;-79
2021/09/18 01:55:47;;;;;;;1.45;1.35;;;;;;;14.60;94.93;96979.99;1762269;81;21009;-79
2021/09/18 01:58:14;;;;;;;1.80;1.20;;;;;;;14.58;95.15;96977.41;1770842;80;20982;-79
2021/09/18 02:00:47;;;;;;;1.42;1.32;;;;;;;14.57;94.78;96973.54;1748042;82;21423;-79
2021/09/18 02:03:14;;;;;;;1.62;1.30;;;;;;;14.50;94.51;96975.23;1747961;82;21021;-79
2021/09/18 02:05:40;;;;;;;1.40;1.20;;;;;;;14.46;94.65;96982.19;1738411;82;20988;-79
2021/09/18 02:08:07;;;;;;;1.25;0.98;;;;;;;14.45;94.83;96983.16;1753779;80;21427;-79
2021/09/18 02:10:34;;;;;;;1.37;1.10;;;;;;;14.41;94.42;96984.29;1748645;82;21043;-79
2021/09/18 02:13:03;;;;;;;1.30;1.20;;;;;;;14.37;94.78;96976.47;1746877;82;21046;-79
2021/09/18 02:15:30;;;;;;;1.40;1.20;;;;;;;14.37;94.99;96976.97;1748137;82;21443;-80
2021/09/18 02:17:57;;;;;;;1.17;1.07;;;;;;;14.32;95.43;96983.05;1748252;81;20994;-79
2021/09/18 02:20:28;;;;;;;1.77;1.00;;;;;;;14.29;95.75;96984.09;1747884;80;20946;-79
2021/09/18 02:22:56;;;;;;;1.10;1.00;;;;;;;14.25;94.50;96984.73;1747775;82;21101;-79
2021/09/18 02:25:24;;;;;;;2.25;1.40;;;;;;;14.20;94.34;96980.16;1760248;80;20978;-79
2021/09/18 02:27:50;;;;;;;1.50;1.07;;;;;;;14.19;94.63;96981.13;1756028;81;21022;-79
2021/09/18 02:30:22;;;;;;;2.30;0.90;;;;;;;14.18;95.62;96986.08;1747895;82;21514;-79
2021/09/18 02:32:49;;;;;;;1.10;0.90;;;;;;;14.18;94.80;96983.88;1748002;81;21011;-79
2021/09/18 02:35:19;;;;;;;0.80;0.65;;;;;;;14.07;94.55;96988.55;1747922;82;21059;-79
2021/09/18 02:37:47;;;;;;;1.40;0.70;;;;;;;14.06;94.23;96987.67;1759934;81;21008;-79
2021/09/18 02:40:16;;;;;;;1.57;0.60;;;;;;;14.03;94.26;96989.67;1750763;82;21019;-79
2021/09/18 02:42:47;;;;;;;1.10;0.70;;;;;;;14.02;94.62;96994.12;1757181;81;21024;-79
2021/09/18 02:45:14;;;;;;;0.68;0.60;;;;;;;14.07;94.96;96993.87;1741250;82;21412;-78
2021/09/18 02:47:41;;;;;;;1.02;0.75;;;;;;;14.13;95.15;97004.15;1736423;82;21014;-79
2021/09/18 02:50:11;;;;;;;0.88;0.70;;;;;;;14.14;94.79;97003.19;1736749;82;21062;-79
2021/09/18 02:52:38;;;;;;;0.70;0.70;;;;;;;14.17;94.48;97008.81;1745011;82;20998;-79
2021/09/18 02:55:07;;;;;;;0.60;0.60;;;;;;;14.16;94.53;97006.61;1750008;81;21011;-79
2021/09/18 02:57:34;;;;;;;0.70;0.70;;;;;;;14.20;94.67;97008.64;1765074;81;21322;-78
2021/09/18 03:00:02;;;;;;;0.70;0.60;;;;;;;14.24;94.62;97008.81;1765198;81;21048;-78
2021/09/18 03:02:28;;;;;;;0.60;0.60;;;;;;;14.25;94.47;97006.55;1765149;81;20989;-79
2021/09/18 03:04:54;;;;;;;2.30;0.70;;;;;;;14.31;94.83;97009.30;1762184;81;21073;-78
2021/09/18 03:07:21;;;;;;;0.50;0.50;;;;;;;14.33;94.98;97010.92;1745008;82;21002;-78
2021/09/18 03:09:47;;;;;;;2.58;0.70;;;;;;;14.36;94.45;97007.20;1744954;82;21427;-78
2021/09/18 03:12:14;;;;;;;1.00;0.53;;;;;;;14.36;94.62;97014.74;1745056;82;20987;-78
2021/09/18 03:14:40;;;;;;;2.55;0.60;;;;;;;14.36;94.07;97009.88;1745758;81;20963;-78
2021/09/18 03:17:07;;;;;;;0.72;0.65;;;;;;;14.38;94.37;97013.32;1765172;81;21063;-78
2021/09/18 03:19:34;;;;;;;1.35;0.65;;;;;;;14.38;93.81;97009.33;1765296;81;20981;-78
2021/09/18 03:22:01;;;;;;;1.45;0.78;;;;;;;14.40;94.02;97014.07;1765250;80;21433;-78
2021/09/18 03:24:28;;;;;;;0.80;0.60;;;;;;;14.39;94.38;97011.91;1762549;81;20970;-78
2021/09/18 03:26:55;;;;;;;0.88;0.50;;;;;;;14.39;94.18;97014.56;1764008;81;20977;-78
2021/09/18 03:29:22;;;;;;;3.60;0.70;;;;;;;14.41;94.08;97010.45;1765025;81;21001;-78
2021/09/18 03:31:48;;;;;;;1.67;0.70;;;;;;;14.39;94.00;97010.56;1765206;80;20977;-78
2021/09/18 03:34:15;;;;;;;1.27;0.72;;;;;;;14.35;93.09;97014.37;1754326;81;21038;-79
2021/09/18 03:36:41;;;;;;;1.57;0.60;;;;;;;14.29;93.31;97017.88;1744567;82;21139;-78
2021/09/18 03:39:08;;;;;;;4.00;0.72;;;;;;;14.27;93.20;97014.45;1744817;82;20998;-78
2021/09/18 03:41:34;;;;;;;1.72;1.00;;;;;;;14.24;92.99;97023.00;1744670;81;21100;-78
2021/09/18 03:44:01;;;;;;;1.45;0.80;;;;;;;14.24;93.15;97022.13;1753244;81;21394;-78
2021/09/18 03:46:28;;;;;;;2.55;0.72;;;;;;;14.23;93.29;97021.30;1764792;81;20953;-78
2021/09/18 03:48:54;;;;;;;0.80;0.80;;;;;;;14.22;92.89;97033.38;1761954;81;20999;-78
2021/09/18 03:51:22;;;;;;;0.75;0.60;;;;;;;14.19;93.11;97030.42;1741577;82;21139;-77
2021/09/18 03:53:48;;;;;;;0.80;0.78;;;;;;;14.16;93.12;97026.59;1751443;81;20984;-78
2021/09/18 03:56:15;;;;;;;1.35;0.72;;;;;;;14.15;93.13;97028.88;1748025;80;20998;-78
2021/09/18 03:58:41;;;;;;;1.67;0.65;;;;;;;14.13;93.24;97030.80;1744835;82;21045;-78
2021/09/18 04:01:08;;;;;;;0.90;0.80;;;;;;;14.11;93.25;97024.68;1744974;82;21427;-77
2021/09/18 04:03:34;;;;;;;1.72;0.68;;;;;;;14.07;92.95;97036.00;1749048;81;20995;-78
2021/09/18 04:06:01;;;;;;;1.27;0.50;;;;;;;14.07;93.14;97042.66;1765106;81;21050;-78
2021/09/18 04:08:27;;;;;;;2.65;0.80;;;;;;;14.05;93.19;97035.25;1765210;81;20980;-77
2021/09/18 04:10:54;;;;;;;1.45;0.57;;;;;;;14.02;92.78;97043.87;1765056;81;21441;-78
2021/09/18 04:13:20;;;;;;;0.60;0.50;;;;;;;14.04;92.55;97048.16;1763103;81;21035;-78
2021/09/18 04:15:47;;;;;;;1.47;0.60;;;;;;;13.99;91.66;97051.11;1744774;82;20979;-78
2021/09/18 04:18:13;;;;;;;1.25;0.60;;;;;;;14.01;92.17;97040.83;1744772;82;21491;-77
2021/09/18 04:20:40;;;;;;;0.50;0.50;;;;;;;14.03;92.37;97051.78;1744917;82;21038;-77
2021/09/18 04:23:06;;;;;;;0.60;0.60;;;;;;;14.05;91.54;97054.36;1744925;80;21100;-78
2021/09/18 04:25:33;;;;;;;2.80;0.80;;;;;;;14.03;90.83;97072.25;1750886;81;21379;-78
2021/09/18 04:28:00;;;;;;;0.72;0.70;;;;;;;14.04;91.59;97061.98;1744790;82;21042;-78
2021/09/18 04:30:26;;;;;;;1.10;1.00;;;;;;;14.03;91.49;97060.27;1744829;82;20974;-77
2021/09/18 04:32:53;;;;;;;1.25;1.02;;;;;;;14.04;90.56;97068.14;1744848;82;21447;-77
2021/09/18 04:35:19;;;;;;;1.22;1.10;;;;;;;14.03;90.35;97070.42;1762826;81;20953;-77
2021/09/18 04:37:45;;;;;;;1.60;1.30;;;;;;;14.02;90.39;97071.38;1765190;81;21012;-78
2021/09/18 04:40:12;;;;;;;1.62;1.52;;;;;;;13.99;88.78;97078.21;1764916;79;21405;-78
2021/09/18 04:42:39;;;;;;;2.83;1.80;;;;;;;13.99;88.63;97084.88;1755612;81;21041;-77
2021/09/18 04:45:07;;;;;;;2.02;1.80;;;;;;;13.98;89.61;97084.03;1744920;82;21428;-77
2021/09/18 04:47:34;;;;;;;4.22;2.65;;;;;;;13.98;89.51;97077.83;1744716;82;21476;-78
2021/09/18 04:50:00;;;;;;;3.00;2.27;;;;;;;13.98;89.07;97087.16;1745792;81;21073;-77
2021/09/18 04:52:27;;;;;;;2.60;2.40;;;;;;;14.01;89.84;97092.78;1748324;81;21065;-78
2021/09/18 04:54:53;;;;;;;4.87;2.62;;;;;;;14.01;89.22;97087.45;1768733;80;21345;-78
2021/09/18 04:57:20;;;;;;;5.05;2.70;;;;;;;13.98;89.63;97096.02;1775227;81;21006;-78
2021/09/18 04:59:46;;;;;;;3.35;3.00;;;;;;;13.99;89.31;97098.19;1775065;81;21053;-78
2021/09/18 05:02:13;;;;;;;5.28;3.00;;;;;;;13.99;89.41;97102.19;1745703;81;21436;-77
2021/09/18 05:04:39;;;;;;;3.95;3.30;;;;;;;13.95;88.71;97104.17;1744910;82;20979;-78
2021/09/18 05:07:06;;;;;;;4.75;3.15;;;;;;;13.88;87.65;97111.28;1744903;81;21042;-78
2021/09/18 05:09:32;;;;;;;4.00;3.50;;;;;;;13.86;88.09;97113.56;1744596;82;21002;-78
2021/09/18 05:11:58;;;;;;;4.78;3.20;;;;;;;13.83;87.54;97116.39;1761856;81;20989;-78
2021/09/18 05:14:25;;;;;;;5.90;4.15;;;;;;;13.81;87.99;97117.42;1765093;81;21016;-78
2021/09/18 05:16:51;;;;;;;5.67;4.05;;;;;;;13.83;88.38;97122.20;1765188;81;20989;-78
2021/09/18 05:19:18;;;;;;;4.33;3.65;;;;;;;13.84;88.40;97110.60;1765033;81;21047;-78
2021/09/18 05:21:44;;;;;;;5.62;3.80;;;;;;;13.84;88.10;97114.11;1754234;81;20979;-78
2021/09/18 05:24:10;;;;;;;6.22;3.70;;;;;;;13.85;87.65;97116.31;1764031;81;21071;-78
2021/09/18 05:26:37;;;;;;;6.30;3.80;;;;;;;13.87;87.74;97122.39;1745075;81;21039;-78
2021/09/18 05:29:03;;;;;;;6.25;3.70;;;;;;;13.86;87.73;97128.67;1744686;82;21006;-78
2021/09/18 05:31:30;;;;;;;5.28;3.52;;;;;;;13.85;87.47;97127.83;1745281;80;21570;-78
2021/09/18 05:33:56;;;;;;;4.35;3.60;;;;;;;13.87;87.84;97131.72;1764448;80;21045;-78
2021/09/18 05:36:23;;;;;;;5.20;4.17;;;;;;;13.89;87.91;97131.17;1775265;81;21420;-78
2021/09/18 05:38:49;;;;;;;4.97;3.92;;;;;;;13.94;88.11;97129.10;1775361;81;21038;-78
2021/09/18 05:41:16;;;;;;;6.25;3.90;;;;;;;13.94;87.41;97142.88;1754749;81;21042;-78
2021/09/18 05:43:42;;;;;;;5.62;3.90;;;;;;;13.95;87.70;97144.13;1744881;82;21003;-78
2021/09/18 05:46:08;;;;;;;5.20;4.62;;;;;;;13.94;87.93;97146.88;1745056;82;21003;-78
2021/09/18 05:48:35;;;;;;;4.90;4.03;;;;;;;13.90;88.19;97142.20;1749919;81;21445;-78
2021/09/18 05:51:01;;;;;;;4.92;4.20;;;;;;;13.83;88.52;97153.67;1765315;80;20969;-78
2021/09/18 05:53:28;;;;;;;5.10;3.67;;;;;;;13.81;89.34;97156.91;1765306;81;20988;-78
2021/09/18 05:55:54;;;;;;;5.87;3.67;;;;;;;13.74;90.44;97160.84;1749617;81;20985;-78
2021/09/18 05:58:20;;;;;;;5.12;3.98;;;;;;;13.75;90.00;97164.38;1746013;81;20998;-77
2021/09/18 06:00:47;;;;;;;6.67;3.95;;;;;;;13.74;90.37;97160.84;1744389;82;21065;-78
2021/09/18 06:03:13;;;;;;;7.58;4.15;;;;;;;13.74;90.75;97162.17;1744785;82;21018;-78
2021/09/18 06:05:39;;;;;;;4.55;3.85;;;;;;;13.75;90.63;97164.38;1744935;82;21034;-78
2021/09/18 06:08:06;;;;;;;5.05;4.00;;;;;;;13.81;90.65;97168.89;1744841;82;21407;-78
2021/09/18 06:10:32;;;;;;;5.22;4.67;;;;;;;13.88;90.50;97168.54;1762049;81;20980;-78
2021/09/18 06:12:59;;;;;;;5.37;4.62;;;;;;;13.96;90.56;97166.31;1765219;80;20984;-78
2021/09/18 06:15:25;;;;;;;6.60;5.42;;;;;;;13.98;90.09;97176.39;1765241;81;21036;-78
2021/09/18 06:17:52;;;;;;;6.42;5.60;;;;;;;13.94;89.81;97172.18;1765186;81;21393;-79
2021/09/18 06:20:18;;;;;;;9.18;6.25;;;;;;;13.90;89.54;97175.98;1750151;81;20983;-79
2021/09/18 06:22:44;;;;;;;11.12;5.83;;;;;;;13.91;89.25;97174.55;1745026;82;21026;-79
2021/09/18 06:25:12;;;;;;;8.03;6.20;;;;;;;13.88;89.03;97179.20;1762754;81;21368;-80
2021/09/18 06:27:43;;;;;;;7.37;6.30;;;;;;;13.86;88.83;97177.95;1775290;81;20962;-80
2021/09/18 06:30:14;;;;;;;8.25;7.17;;;;;;;13.90;88.98;97172.00;1768743;81;21420;-79
2021/09/18 06:32:41;;;;;;;8.95;7.00;;;;;;;13.94;88.97;97180.17;1764962;81;20980;-79
2021/09/18 06:35:09;;;;;;;8.58;7.17;;;;;;;13.96;88.86;97187.63;1765073;81;21032;-81
2021/09/18 06:37:48;;;;;;;11.08;7.65;;;;;;;13.94;88.60;97175.72;1764967;81;21465;-79
2021/09/18 06:40:18;;;;;;;10.38;7.50;;;;;;;13.95;88.15;97180.59;1763212;81;21044;-78
2021/09/18 06:42:47;;;;;;;11.85;9.53;;;;;;;14.08;87.69;97188.73;1779374;80;21059;-79
2021/09/18 06:45:14;;;;;;;18.45;10.10;;;;;;;14.23;87.95;97187.85;1779323;81;21073;-80
2021/09/18 06:47:41;;;;;;;9.10;6.62;;;;;;;14.40;87.08;97188.67;1779247;80;21019;-79
2021/09/18 06:50:09;;;;;;;7.75;6.72;;;;;;;14.51;87.00;97192.92;1763818;81;21005;-78
2021/09/18 06:52:36;;;;;;;8.60;6.67;;;;;;;14.56;86.47;97188.64;1753282;81;20974;-79
2021/09/18 06:55:05;;;;;;;8.35;7.45;;;;;;;14.64;85.76;97189.52;1765305;80;21421;-81
2021/09/18 06:57:32;;;;;;;6.97;6.28;;;;;;;14.62;85.61;97193.60;1753775;81;20941;-83
2021/09/18 06:59:59;;;;;;;9.05;6.92;;;;;;;14.51;84.98;97205.38;1778833;81;20949;-79
2021/09/18 07:02:26;;;;;;;7.15;5.75;;;;;;;14.50;85.14;97201.84;1781656;80;20968;-80
2021/09/18 07:04:52;;;;;;;8.53;6.12;;;;;;;14.46;84.99;97200.80;1784070;80;21453;-82
2021/09/18 07:07:19;;;;;;;8.00;6.75;;;;;;;14.45;84.71;97216.41;1782784;80;21036;-81
2021/09/18 07:09:45;;;;;;;9.30;7.28;;;;;;;14.43;84.51;97214.29;1778935;80;21075;-79
2021/09/18 07:12:12;;;;;;;8.10;7.10;;;;;;;14.42;84.98;97217.45;1778730;81;21405;-80
2021/09/18 07:14:38;;;;;;;9.58;7.62;;;;;;;14.39;84.23;97216.28;1778910;80;20989;-78
2021/09/18 07:17:05;;;;;;;9.45;7.75;;;;;;;14.38;84.71;97218.08;1778854;80;21047;-77
2021/09/18 07:19:31;;;;;;;7.65;6.45;;;;;;;14.40;85.14;97215.33;1754342;80;20986;-77
2021/09/18 07:21:57;;;;;;;9.88;6.87;;;;;;;14.42;85.68;97218.78;1753229;82;21041;-77
2021/09/18 07:24:24;;;;;;;8.78;7.33;;;;;;;14.40;84.87;97215.33;1764344;80;21320;-77
2021/09/18 07:26:50;;;;;;;8.85;7.22;;;;;;;14.44;85.02;97222.66;1784166;80;21014;-77
2021/09/18 07:29:17;;;;;;;11.20;8.15;;;;;;;14.47;85.65;97219.83;1757806;80;21251;-77
2021/09/18 07:31:43;;;;;;;9.98;7.30;;;;;;;14.51;85.23;97221.38;1753351;82;21034;-77
2021/09/18 07:34:09;;;;;;;10.00;7.08;;;;;;;14.54;84.83;97219.01;1753431;81;21522;-77
2021/09/18 07:36:36;;;;;;;8.93;7.20;;;;;;;14.54;84.68;97220.34;1753260;82;21025;-77
2021/09/18 07:39:03;;;;;;;8.25;6.90;;;;;;;14.52;84.24;97225.76;1771236;81;20933;-77
2021/09/18 07:41:30;;;;;;;7.58;6.03;;;;;;;14.55;83.91;97228.25;1772494;80;21143;-77
2021/09/18 07:44:00;;;;;;;7.87;6.65;;;;;;;14.57;84.16;97222.34;1765123;80;21047;-78
2021/09/18 07:46:25;;;;;;;7.30;6.35;;;;;;;14.62;84.39;97227.42;1765099;80;21044;-77
2021/09/18 07:48:51;;;;;;;7.05;6.30;;;;;;;14.71;83.62;97223.35;1746646;80;20976;-77
2021/09/18 07:51:18;;;;;;;8.25;6.30;;;;;;;14.88;83.52;97223.72;1735039;81;20999;-78
2021/09/18 07:53:44;;;;;;;7.22;5.72;;;;;;;15.03;83.11;97232.13;1731308;82;21067;-77
2021/09/18 07:56:11;;;;;;;6.08;5.25;;;;;;;15.22;82.47;97231.03;1741464;82;21028;-78
2021/09/18 07:58:37;;;;;;;5.78;5.17;;;;;;;15.32;81.60;97236.64;1725434;82;20993;-78
2021/09/18 08:01:04;;;;;;;5.42;4.67;;;;;;;15.40;80.08;97236.20;1750352;82;21062;-78
2021/09/18 08:03:30;;;;;;;5.47;4.65;;;;;;;15.52;81.80;97234.09;1738886;82;21000;-76
2021/09/18 08:05:57;;;;;;;8.18;5.60;;;;;;;15.59;80.21;97242.59;1750634;82;20991;-76
2021/09/18 08:08:23;;;;;;;5.35;4.30;;;;;;;15.67;81.49;97244.31;1756888;82;21359;-76
2021/09/18 08:10:50;;;;;;;5.97;4.10;;;;;;;15.68;76.80;97258.50;1750442;81;21559;-77
2021/09/18 08:13:16;;;;;;;5.25;4.22;;;;;;;15.68;78.14;97249.16;1750518;81;20988;-76
2021/09/18 08:15:43;;;;;;;6.12;4.60;;;;;;;15.79;79.88;97248.03;1721048;82;20992;-77
2021/09/18 08:18:09;;;;;;;6.35;4.50;;;;;;;15.90;79.84;97252.67;1743096;82;20984;-76
2021/09/18 08:20:36;;;;;;;7.22;4.80;;;;;;;15.91;79.30;97257.05;1720910;83;21059;-77
2021/09/18 08:23:03;;;;;;;6.33;4.72;;;;;;;15.99;80.12;97266.45;1726935;83;21059;-78
2021/09/18 08:25:30;;;;;;;6.03;4.53;;;;;;;16.04;77.92;97258.53;1720013;83;21389;-77
2021/09/18 08:27:57;;;;;;;4.80;4.15;;;;;;;16.07;77.07;97260.14;1736064;82;20950;-77
2021/09/18 08:30:26;;;;;;;4.67;4.15;;;;;;;16.18;78.59;97254.95;1750294;82;21027;-77
2021/09/18 08:32:52;;;;;;;4.83;4.03;;;;;;;16.35;78.30;97257.00;1754743;82;21036;-76
2021/09/18 08:35:19;;;;;;;6.05;4.37;;;;;;;16.38;76.63;97253.27;1750614;82;20991;-78
2021/09/18 08:37:46;;;;;;;4.55;4.15;;;;;;;16.42;76.02;97244.97;1757202;82;21438;-78
2021/09/18 08:40:12;;;;;;;5.67;4.10;;;;;;;16.54;75.38;97238.41;1750626;81;20983;-78
2021/09/18 08:42:43;;;;;;;5.10;4.60;;;;;;;16.61;74.96;97240.58;1747355;82;21062;-76
2021/09/18 08:45:13;;;;;;;5.08;4.58;;;;;;;16.70;73.97;97244.95;1739182;82;20990;-77
2021/09/18 08:47:42;;;;;;;5.45;4.90;;;;;;;16.73;74.87;97234.05;1739280;82;21487;-78
2021/09/18 08:50:15;;;;;;;5.62;5.03;;;;;;;16.71;73.34;97248.00;1738996;82;21038;-78
2021/09/18 08:52:42;;;;;;;5.13;4.67;;;;;;;16.57;72.38;97249.77;1747962;82;20949;-78
2021/09/18 08:55:09;;;;;;;6.17;5.55;;;;;;;16.63;72.54;97240.48;1743761;81;21712;-77
2021/09/18 08:57:36;;;;;;;5.70;4.20;;;;;;;16.49;71.14;97246.27;1738872;81;21057;-77
2021/09/18 09:00:07;;;;;;;5.83;4.78;;;;;;;16.50;72.03;97239.11;1740641;80;20998;-77
2021/09/18 09:02:37;;;;;;;5.12;4.25;;;;;;;16.48;70.31;97242.34;1757090;81;21441;-78
2021/09/18 09:05:09;;;;;;;5.17;4.50;;;;;;;16.49;71.45;97236.06;1746386;81;21022;-78
2021/09/18 09:07:36;;;;;;;5.55;4.92;;;;;;;16.56;70.69;97243.20;1741652;82;21035;-77
2021/09/18 09:10:06;;;;;;;6.37;4.62;;;;;;;16.64;70.66;97239.52;1728547;82;21506;-77
2021/09/18 09:12:38;;;;;;;4.67;4.10;;;;;;;16.64;69.06;97242.19;1709454;83;21044;-77
2021/09/18 09:15:20;;;;;;;4.70;4.30;;;;;;;16.64;69.82;97239.52;1741984;82;20959;-78
2021/09/18 09:17:51;;;;;;;4.60;4.10;;;;;;;16.68;68.92;97242.37;1709927;84;20998;-78
2021/09/18 09:20:24;;;;;;;6.15;4.58;;;;;;;16.74;69.86;97230.41;1735734;82;21139;-78
2021/09/18 09:22:51;;;;;;;4.33;3.90;;;;;;;16.92;70.38;97236.80;1739317;82;20996;-76
2021/09/18 09:25:32;;;;;;;5.55;4.30;;;;;;;17.00;67.73;97234.00;1763695;81;21074;-77
2021/09/18 09:28:21;;;;;;;5.17;4.10;;;;;;;17.05;68.95;97226.14;1775455;81;20974;-77
2021/09/18 09:30:48;;;;;;;4.33;3.62;;;;;;;17.17;68.86;97231.14;1761850;81;21020;-77
2021/09/18 09:33:15;;;;;;;5.00;4.50;;;;;;;17.18;66.24;97221.67;1765127;81;21023;-76
2021/09/18 09:35:43;;;;;;;4.20;3.65;;;;;;;17.21;66.14;97230.84;1764975;81;21008;-77
2021/09/18 09:38:11;;;;;;;4.67;4.28;;;;;;;17.13;65.33;97229.16;1765005;81;21039;-78
2021/09/18 09:40:44;;;;;;;4.92;3.83;;;;;;;17.31;66.04;97222.17;1747348;81;21410;-77
2021/09/18 09:43:15;;;;;;;4.28;3.87;;;;;;;17.50;66.82;97210.54;1744664;82;21030;-78
2021/09/18 09:45:42;;;;;;;4.28;3.52;;;;;;;17.61;67.19;97212.94;1744771;82;20991;-76
2021/09/18 09:48:22;;;;;;;3.92;3.62;;;;;;;17.62;64.16;97212.84;1751699;81;21029;-77
2021/09/18 09:51:02;;;;;;;4.35;3.95;;;;;;;17.72;65.12;97207.66;1764972;81;21035;-77
2021/09/18 09:53:33;;;;;;;3.75;3.45;;;;;;;17.79;64.58;97204.93;1709234;81;20974;-77
2021/09/18 09:56:06;;;;;;;4.92;3.70;;;;;;;17.87;63.30;97198.14;1765755;81;21039;-76
2021/09/18 09:58:28;;;;;;;4.00;3.60;;;;;;;17.80;62.65;97199.06;1764671;81;21035;-77
2021/09/18 10:00:54;;;;;;;3.87;3.37;;;;;;;17.86;62.31;97193.76;1765130;81;21449;-77
2021/09/18 10:03:23;;;;;;;3.95;3.25;;;;;;;17.89;61.73;97186.34;1772815;81;21069;-77
2021/09/18 10:05:53;;;;;;;3.98;3.35;;;;;;;18.05;62.98;97176.70;1755099;81;21042;-77
2021/09/18 10:08:25;;;;;;;3.77;3.37;;;;;;;18.23;62.07;97193.76;1744536;82;21134;-77
2021/09/18 10:10:53;;;;;;;4.17;3.22;;;;;;;18.18;59.93;97189.22;1744600;82;21431;-78
2021/09/18 10:13:26;;;;;;;3.85;3.37;;;;;;;18.12;59.57;97193.23;1744895;82;21451;-78
2021/09/18 10:15:53;;;;;;;4.40;3.70;;;;;;;18.20;61.30;97190.81;1745245;81;20982;-78
2021/09/18 10:18:22;;;;;;;5.92;3.85;;;;;;;18.32;62.53;97193.08;1744740;82;21065;-78
2021/09/18 10:23:25;;;;;;;3.55;3.25;;;;;;;18.62;61.23;97192.25;1726063;81;21055;-78
2021/09/18 10:25:59;;;;;;;3.85;3.47;;;;;;;18.68;59.11;97180.20;1746110;81;21035;-78
2021/09/18 10:28:29;;;;;;;4.40;3.35;;;;;;;18.84;59.90;97183.89;1744769;81;21431;-78
2021/09/18 10:30:59;;;;;;;4.45;3.40;;;;;;;18.91;57.96;97186.49;1736530;82;21509;-78
2021/09/18 10:33:45;;;;;;;3.50;3.10;;;;;;;19.03;60.67;97175.77;1741117;81;20990;-78
2021/09/18 10:36:17;;;;;;;3.30;3.00;;;;;;;19.43;59.83;97184.76;1744409;82;21014;-79
2021/09/18 10:39:10;;;;;;;3.37;2.83;;;;;;;19.41;55.58;97188.55;1751991;81;21429;-78
2021/09/18 10:41:50;;;;;;;3.62;3.20;;;;;;;20.20;53.52;97182.76;1764847;80;21044;-77
2021/09/18 10:44:20;;;;;;;3.17;2.87;;;;;;;21.18;51.84;97173.30;1780992;80;21422;-76
2021/09/18 10:46:55;;;;;;;3.10;2.85;;;;;;;21.87;50.40;97166.88;1783554;80;21024;-76
2021/09/18 10:49:39;;;;;;;3.33;3.02;;;;;;;22.76;46.91;97171.92;1780095;80;20985;-76
2021/09/18 10:52:31;;;;;;;3.20;2.90;;;;;;;23.63;50.21;97157.55;1778757;81;21111;-77
2021/09/18 10:55:08;;;;;;;2.83;2.60;;;;;;;24.88;47.06;97147.53;1779053;80;21092;-77
2021/09/18 10:57:48;;;;;;;3.15;2.85;;;;;;;25.18;40.03;97146.76;1779487;81;20996;-76
2021/09/18 11:00:23;;;;;;;3.95;2.80;;;;;;;25.49;42.84;97144.56;1752962;80;20990;-77
2021/09/18 11:02:56;;;;;;;2.75;2.55;;;;;;;26.24;41.69;97143.02;1769480;80;21022;-76
2021/09/18 11:05:41;;;;;;;2.92;2.72;;;;;;;26.84;39.76;97147.85;1783904;80;21022;-77
2021/09/18 11:08:20;;;;;;;3.00;2.50;;;;;;;27.26;37.97;97148.69;1760062;80;21442;-77
2021/09/18 11:10:59;;;;;;;2.70;2.45;;;;;;;27.09;34.68;97142.92;1774023;81;20993;-76
2021/09/18 11:13:33;;;;;;;2.75;2.42;;;;;;;27.15;33.47;97147.67;1779149;81;21043;-77
2021/09/18 11:16:08;;;;;;;2.55;2.35;;;;;;;26.67;34.67;97142.06;1778802;80;21068;-77
2021/09/18 11:18:42;;;;;;;2.40;2.20;;;;;;;27.50;36.10;97132.48;1778437;80;20957;-78
2021/09/18 11:21:23;;;;;;;2.87;2.30;;;;;;;27.45;36.70;97138.45;1780554;80;20932;-77
2021/09/18 11:23:57;;;;;;;2.60;2.40;;;;;;;27.53;34.45;97135.69;1772110;80;21014;-77
2021/09/18 11:26:42;;;;;;;2.67;2.47;;;;;;;28.08;35.82;97132.27;1753770;81;21470;-77
2021/09/18 11:29:35;;;;;;;3.47;2.42;;;;;;;28.37;34.50;97132.13;1778462;81;21087;-77
2021/09/18 11:32:16;;;;;;;5.53;2.15;;;;;;;27.62;33.78;97137.06;1779156;80;20993;-77
2021/09/18 11:34:51;;;;;;;2.75;2.17;;;;;;;27.73;35.65;97131.23;1777795;80;21028;-77
2021/09/18 11:37:29;;;;;;;3.30;2.25;;;;;;;26.75;36.44;97138.83;1768447;80;21041;-76
2021/09/18 11:40:05;;;;;;;2.85;2.30;;;;;;;26.04;37.99;97129.73;1753349;82;21037;-77
2021/09/18 11:42:39;;;;;;;1.98;1.87;;;;;;;25.91;38.42;97135.59;1752950;81;21443;-76